createdAt,value
2022-12-22T00:00:51.088Z,100751.25
2022-12-22T00:03:17.752Z,100705.03
2022-12-22T00:05:44.424Z,100753.41
2022-12-22T00:08:11.029Z,100749.78
2022-12-22T00:10:37.600Z,100763.22
2022-12-22T00:13:04.723Z,100783.91
2022-12-22T00:15:35.126Z,100786.09
2022-12-22T00:18:02.556Z,100727.28
2022-12-22T00:20:29.691Z,100782.06
2022-12-22T00:22:56.290Z,100800.59
2022-12-22T00:25:22.747Z,100758.44
2022-12-22T00:27:49.278Z,100761.22
2022-12-22T00:30:17.538Z,100785.91
2022-12-22T00:32:44.376Z,100805.97
2022-12-22T00:35:15.118Z,100762.78
2022-12-22T00:37:41.583Z,100806.38
2022-12-22T00:40:20.772Z,100791.25
2022-12-22T00:42:47.344Z,100803.53
2022-12-22T00:45:13.892Z,100809.97
2022-12-22T00:47:41.415Z,100811.13
2022-12-22T00:50:09.088Z,100804.53
2022-12-22T00:52:36.055Z,100820.13
2022-12-22T00:55:04.425Z,100802.00
2022-12-22T00:57:31.172Z,100832.34
2022-12-22T00:59:57.923Z,100841.38
2022-12-22T01:02:24.618Z,100849.94
2022-12-22T01:04:51.216Z,100860.78
2022-12-22T01:07:22.011Z,100864.72
2022-12-22T01:09:51.777Z,100879.47
2022-12-22T01:12:22.419Z,100888.44
2022-12-22T01:14:48.976Z,100900.72
2022-12-22T01:17:15.591Z,100856.59
2022-12-22T01:19:42.144Z,100902.13
2022-12-22T01:22:11.602Z,100910.34
2022-12-22T01:24:38.251Z,100926.94
2022-12-22T01:27:05.006Z,100913.97
2022-12-22T01:29:31.673Z,100918.25
2022-12-22T01:31:58.315Z,100910.75
2022-12-22T01:34:24.842Z,100910.97
2022-12-22T01:36:51.404Z,100910.06
2022-12-22T01:39:17.844Z,100893.81
2022-12-22T01:41:44.862Z,100902.38
2022-12-22T01:44:15.584Z,100883.78
2022-12-22T01:46:44.793Z,100858.59
2022-12-22T01:49:18.395Z,100854.41
2022-12-22T01:51:45.119Z,100836.53
2022-12-22T01:54:13.004Z,100826.44
2022-12-22T01:56:40.213Z,100824.19
2022-12-22T01:59:06.888Z,100830.28
2022-12-22T02:01:34.546Z,100778.06
2022-12-22T02:04:01.265Z,100812.06
2022-12-22T02:06:41.736Z,100805.47
2022-12-22T02:09:31.744Z,100803.53
2022-12-22T02:12:04.039Z,100810.31
2022-12-22T02:15:17.130Z,100798.25
2022-12-22T02:18:07.922Z,100784.59
2022-12-22T02:20:40.192Z,100783.59
2022-12-22T02:23:25.612Z,100781.97
2022-12-22T02:26:17.597Z,100796.78
2022-12-22T02:28:46.197Z,100804.03
2022-12-22T02:31:12.862Z,100809.03
2022-12-22T02:33:41.916Z,100811.25
2022-12-22T02:36:16.031Z,100781.53
2022-12-22T02:39:11.046Z,100810.03
2022-12-22T02:41:46.791Z,100758.59
2022-12-22T02:44:45.880Z,100721.25
2022-12-22T02:47:20.816Z,100820.66
2022-12-22T02:49:59.233Z,100822.91
2022-12-22T02:52:34.406Z,100816.56
2022-12-22T02:55:02.676Z,100811.56
2022-12-22T02:57:32.041Z,100701.50
2022-12-22T02:59:58.934Z,100779.22
2022-12-22T03:02:31.216Z,100787.19
2022-12-22T03:04:58.027Z,100785.97
2022-12-22T03:07:24.720Z,100788.94
2022-12-22T03:09:51.203Z,100787.53
2022-12-22T03:12:17.639Z,100786.09
2022-12-22T03:14:44.258Z,100769.63
2022-12-22T03:17:10.844Z,100792.91
2022-12-22T03:19:37.554Z,100797.50
2022-12-22T03:22:04.155Z,100782.56
2022-12-22T03:24:30.726Z,100818.78
2022-12-22T03:26:57.286Z,100857.22
2022-12-22T03:29:24.137Z,100818.63
2022-12-22T03:31:50.655Z,100844.56
2022-12-22T03:34:17.313Z,100829.78
2022-12-22T03:36:43.877Z,100812.25
2022-12-22T03:39:10.442Z,100802.94
2022-12-22T03:41:37.048Z,100810.63
2022-12-22T03:44:03.580Z,100778.28
2022-12-22T03:46:30.870Z,100760.75
2022-12-22T03:49:02.372Z,100813.59
2022-12-22T03:51:28.957Z,100821.59
2022-12-22T03:53:55.837Z,100784.66
2022-12-22T03:56:22.301Z,100833.69
2022-12-22T03:58:48.852Z,100844.03
2022-12-22T04:01:17.108Z,100806.72
2022-12-22T04:03:43.878Z,100835.94
2022-12-22T04:06:10.419Z,100820.28
2022-12-22T04:08:36.973Z,100824.53
2022-12-22T04:11:03.605Z,100821.16
2022-12-22T04:13:30.132Z,100821.44
2022-12-22T04:15:56.652Z,100803.09
2022-12-22T04:18:23.718Z,100733.88
2022-12-22T04:20:50.532Z,100783.63
2022-12-22T04:23:16.951Z,100782.31
2022-12-22T04:25:43.530Z,100782.97
2022-12-22T04:28:10.139Z,100777.16
2022-12-22T04:30:36.822Z,100785.81
2022-12-22T04:33:03.354Z,100777.78
2022-12-22T04:35:31.831Z,100732.34
2022-12-22T04:37:58.469Z,100788.50
2022-12-22T04:40:24.988Z,100783.47
2022-12-22T04:42:51.504Z,100771.00
2022-12-22T04:45:18.392Z,100768.56
2022-12-22T04:47:44.908Z,100764.41
2022-12-22T04:50:11.630Z,100773.84
2022-12-22T04:52:38.390Z,100764.03
2022-12-22T04:55:05.261Z,100759.44
2022-12-22T04:57:35.532Z,100751.59
2022-12-22T05:00:08.091Z,100759.25
2022-12-22T05:02:34.793Z,100748.63
2022-12-22T05:05:01.746Z,100747.81
2022-12-22T05:07:28.393Z,100727.31
2022-12-22T05:09:54.946Z,100746.41
2022-12-22T05:12:21.610Z,100741.59
2022-12-22T05:14:48.212Z,100748.03
2022-12-22T05:17:14.754Z,100749.84
2022-12-22T05:19:41.235Z,100749.00
2022-12-22T05:22:07.848Z,100744.81
2022-12-22T05:24:34.284Z,100734.94
2022-12-22T05:27:00.924Z,100686.97
2022-12-22T05:29:27.478Z,100739.97
2022-12-22T05:31:54.138Z,100759.22
2022-12-22T05:34:20.675Z,100756.16
2022-12-22T05:36:47.146Z,100751.94
2022-12-22T05:39:13.652Z,100769.16
2022-12-22T05:41:40.349Z,100774.63
2022-12-22T05:44:07.125Z,100778.97
2022-12-22T05:46:33.644Z,100781.16
2022-12-22T05:49:00.232Z,100776.34
2022-12-22T05:51:26.762Z,100754.81
2022-12-22T05:53:53.323Z,100786.78
2022-12-22T05:56:19.820Z,100798.38
2022-12-22T05:58:46.428Z,100791.97
2022-12-22T06:01:12.952Z,100724.69
2022-12-22T06:03:39.601Z,100773.31
2022-12-22T06:06:06.489Z,100778.50
2022-12-22T06:08:33.057Z,100779.28
2022-12-22T06:10:59.593Z,100777.88
2022-12-22T06:13:26.682Z,100690.63
2022-12-22T06:15:53.279Z,100775.44
2022-12-22T06:18:19.943Z,100727.59
2022-12-22T06:20:46.658Z,100779.47
2022-12-22T06:23:13.255Z,100781.09
2022-12-22T06:25:39.772Z,100712.94
2022-12-22T06:28:06.527Z,100766.59
2022-12-22T06:30:34.093Z,100764.59
2022-12-22T06:33:01.674Z,100718.00
2022-12-22T06:35:28.630Z,100711.63
2022-12-22T06:37:55.385Z,100767.38
2022-12-22T06:40:21.923Z,100778.38
2022-12-22T06:42:48.516Z,100768.16
2022-12-22T06:45:15.153Z,100717.16
2022-12-22T06:47:41.748Z,100759.97
2022-12-22T06:50:08.793Z,100763.50
2022-12-22T06:52:35.502Z,100762.06
2022-12-22T06:55:02.216Z,100770.69
2022-12-22T06:57:29.275Z,100702.72
2022-12-22T06:59:57.943Z,100765.81
2022-12-22T07:02:25.090Z,100754.75
2022-12-22T07:04:51.967Z,100749.69
2022-12-22T07:07:18.478Z,100742.75
2022-12-22T07:09:45.181Z,100702.72
2022-12-22T07:12:13.709Z,100734.72
2022-12-22T07:14:40.891Z,100772.34
2022-12-22T07:17:07.478Z,100744.63
2022-12-22T07:19:34.106Z,100768.56
2022-12-22T07:22:00.971Z,100753.84
2022-12-22T07:24:27.676Z,100772.88
2022-12-22T07:26:54.312Z,100741.06
2022-12-22T07:29:21.206Z,100776.31
2022-12-22T07:31:48.012Z,100725.22
2022-12-22T07:34:14.835Z,100782.13
2022-12-22T07:36:41.498Z,100784.38
2022-12-22T07:39:09.357Z,100783.13
2022-12-22T07:41:36.016Z,100772.25
2022-12-22T07:44:03.434Z,100775.28
2022-12-22T07:46:32.844Z,100779.97
2022-12-22T07:49:02.158Z,100770.72
2022-12-22T07:51:33.221Z,100758.06
2022-12-22T07:53:59.812Z,100797.78
2022-12-22T07:56:26.592Z,100801.00
2022-12-22T07:58:53.253Z,100800.88
2022-12-22T08:01:19.824Z,100822.78
2022-12-22T08:03:46.786Z,100827.78
2022-12-22T08:06:13.457Z,100834.84
2022-12-22T08:08:40.084Z,100835.41
2022-12-22T08:11:06.708Z,100825.97
2022-12-22T08:13:33.247Z,100805.97
2022-12-22T08:16:08.509Z,100836.31
2022-12-22T08:18:36.085Z,100850.88
2022-12-22T08:21:03.979Z,100858.78
2022-12-22T08:23:31.420Z,100861.53
2022-12-22T08:26:07.464Z,100862.97
2022-12-22T08:28:38.340Z,100868.97
2022-12-22T08:31:05.161Z,100884.50
2022-12-22T08:33:31.885Z,100890.03
2022-12-22T08:36:05.826Z,100837.41
2022-12-22T08:38:35.029Z,100845.00
2022-12-22T08:41:01.735Z,100916.47
2022-12-22T08:43:31.357Z,100934.00
2022-12-22T08:45:57.872Z,100897.75
2022-12-22T08:48:24.412Z,100871.63
2022-12-22T08:50:51.062Z,100925.59
2022-12-22T08:53:45.194Z,100920.22
2022-12-22T08:56:04.554Z,100915.72
2022-12-22T08:58:31.147Z,100924.78
2022-12-22T09:00:57.637Z,100927.03
2022-12-22T09:03:24.315Z,100941.53
2022-12-22T09:05:51.025Z,100949.41
2022-12-22T09:08:17.539Z,100954.91
2022-12-22T09:10:44.104Z,100957.50
2022-12-22T09:13:10.625Z,100954.19
2022-12-22T09:15:37.751Z,100915.56
2022-12-22T09:18:04.463Z,100951.13
2022-12-22T09:20:31.068Z,100976.56
2022-12-22T09:22:57.786Z,100976.94
2022-12-22T09:25:24.433Z,100918.50
2022-12-22T09:27:51.209Z,100983.03
2022-12-22T09:30:17.779Z,100981.66
2022-12-22T09:32:44.375Z,100916.91
2022-12-22T09:35:10.861Z,100973.59
2022-12-22T09:37:37.335Z,100977.06
2022-12-22T09:40:04.211Z,100975.41
2022-12-22T09:42:35.450Z,100983.03
2022-12-22T09:45:03.092Z,100974.78
2022-12-22T09:47:35.876Z,100976.19
2022-12-22T09:50:03.452Z,100981.22
2022-12-22T09:52:35.929Z,100974.69
2022-12-22T09:55:04.689Z,100972.91
2022-12-22T09:57:32.855Z,100967.41
2022-12-22T10:00:13.600Z,100963.75
2022-12-22T10:03:07.688Z,100951.31
2022-12-22T10:05:42.767Z,100964.28
2022-12-22T10:08:19.071Z,100930.03
2022-12-22T10:10:45.694Z,100988.16
2022-12-22T10:13:18.637Z,100989.72
2022-12-22T10:15:45.727Z,100999.84
2022-12-22T10:18:22.677Z,101002.19
2022-12-22T10:21:13.743Z,101012.13
2022-12-22T10:23:44.789Z,101014.53
2022-12-22T10:26:31.921Z,101008.59
2022-12-22T10:29:07.410Z,101033.88
2022-12-22T10:31:35.836Z,100998.78
2022-12-22T10:34:14.211Z,101069.72
2022-12-22T10:36:47.477Z,101067.75
2022-12-22T10:39:22.502Z,101019.13
2022-12-22T10:41:51.525Z,101032.25
2022-12-22T10:44:18.021Z,101086.22
2022-12-22T10:46:47.004Z,101072.13
2022-12-22T10:49:30.784Z,101078.41
2022-12-22T10:52:15.165Z,101076.25
2022-12-22T10:54:42.760Z,101068.38
2022-12-22T10:57:15.041Z,101066.75
2022-12-22T10:59:57.696Z,101062.28
2022-12-22T11:02:24.382Z,101050.66
2022-12-22T11:04:52.571Z,100967.75
2022-12-22T11:07:19.786Z,100969.91
2022-12-22T11:09:46.459Z,101025.94
2022-12-22T11:12:49.990Z,101018.75
2022-12-22T11:15:39.457Z,100956.50
2022-12-22T11:18:53.709Z,101010.63
2022-12-22T11:21:29.017Z,100994.50
2022-12-22T11:24:37.431Z,101012.41
2022-12-22T11:27:45.735Z,100999.59
2022-12-22T11:30:20.061Z,100974.25
2022-12-22T11:33:11.246Z,100989.75
2022-12-22T11:35:50.169Z,100975.91
2022-12-22T11:38:38.207Z,100975.50
2022-12-22T11:41:39.321Z,100967.56
2022-12-22T11:44:13.058Z,100962.44
2022-12-22T11:46:58.489Z,100961.38
2022-12-22T11:51:00.345Z,100963.75
2022-12-22T11:53:17.928Z,100948.59
2022-12-22T11:55:53.354Z,100957.03
2022-12-22T11:58:41.852Z,100939.38
2022-12-22T12:01:26.888Z,100933.00
2022-12-22T12:04:22.581Z,100922.66
2022-12-22T12:06:55.215Z,100909.59
2022-12-22T12:09:53.263Z,100895.69
2022-12-22T12:12:26.762Z,100891.50
2022-12-22T12:15:31.781Z,100882.84
2022-12-22T12:18:17.259Z,100860.25
2022-12-22T12:20:53.631Z,100828.50
2022-12-22T12:23:33.093Z,100861.63
2022-12-22T12:26:37.232Z,100800.44
2022-12-22T12:29:13.817Z,100845.06
2022-12-22T12:32:05.811Z,100782.47
2022-12-22T12:34:41.807Z,100831.03
2022-12-22T12:37:43.752Z,100826.81
2022-12-22T12:40:19.261Z,100777.13
2022-12-22T12:42:47.442Z,100819.19
2022-12-22T12:45:38.663Z,100823.09
2022-12-22T12:48:20.633Z,100820.69
2022-12-22T12:50:48.977Z,100755.03
2022-12-22T12:53:16.639Z,100799.13
2022-12-22T12:55:52.198Z,100791.91
2022-12-22T12:58:37.236Z,100790.38
2022-12-22T13:01:11.687Z,100792.63
2022-12-22T13:06:51.009Z,100790.91
2022-12-22T13:09:49.048Z,100790.53
2022-12-22T13:12:53.457Z,100777.00
2022-12-22T13:15:46.036Z,100773.53
2022-12-22T13:18:24.833Z,100771.66
2022-12-22T13:21:42.682Z,100766.59
2022-12-22T13:24:23.653Z,100759.19
2022-12-22T13:26:47.751Z,100747.25
2022-12-22T13:29:26.873Z,100717.75
2022-12-22T13:32:04.642Z,100743.38
2022-12-22T13:34:57.211Z,100714.53
2022-12-22T13:37:28.755Z,100732.59
2022-12-22T13:40:18.952Z,100727.81
2022-12-22T13:42:50.535Z,100727.91
2022-12-22T13:45:41.235Z,100724.75
2022-12-22T13:48:24.757Z,100656.41
2022-12-22T13:51:22.252Z,100715.03
2022-12-22T13:54:11.990Z,100699.72
2022-12-22T13:56:49.573Z,100701.31
2022-12-22T13:59:26.115Z,100648.31
2022-12-22T14:01:59.106Z,100697.94
2022-12-22T14:04:26.431Z,100661.41
2022-12-22T14:06:53.626Z,100687.88
2022-12-22T14:09:28.067Z,100683.47
2022-12-22T14:11:57.362Z,100679.03
2022-12-22T14:14:31.028Z,100686.69
2022-12-22T14:16:59.767Z,100692.22
2022-12-22T14:19:31.906Z,100683.59
2022-12-22T14:22:04.187Z,100670.94
2022-12-22T14:24:38.545Z,100683.16
2022-12-22T14:27:06.803Z,100679.59
2022-12-22T14:29:33.708Z,100686.53
2022-12-22T14:32:02.462Z,100660.94
2022-12-22T14:34:33.721Z,100678.53
2022-12-22T14:37:01.511Z,100695.75
2022-12-22T14:39:31.463Z,100686.56
2022-12-22T14:42:11.419Z,100696.19
2022-12-22T14:44:46.186Z,100710.59
2022-12-22T14:47:12.842Z,100663.38
2022-12-22T14:50:02.918Z,100720.00
2022-12-22T14:52:43.363Z,100710.19
2022-12-22T14:55:28.795Z,100713.94
2022-12-22T14:58:05.029Z,100721.56
2022-12-22T15:00:53.871Z,100663.88
2022-12-22T15:03:29.921Z,100728.78
2022-12-22T15:05:56.836Z,100731.78
2022-12-22T15:08:40.414Z,100740.00
2022-12-22T15:11:17.055Z,100722.00
2022-12-22T15:13:46.407Z,100718.34
2022-12-22T15:16:16.009Z,100669.88
2022-12-22T15:18:42.716Z,100750.81
2022-12-22T15:21:13.515Z,100746.66
2022-12-22T15:23:40.631Z,100740.00
2022-12-22T15:26:07.489Z,100667.22
2022-12-22T15:28:34.143Z,100691.53
2022-12-22T15:31:02.822Z,100749.56
2022-12-22T15:33:30.593Z,100753.16
2022-12-22T15:35:57.317Z,100767.94
2022-12-22T15:38:25.182Z,100732.38
2022-12-22T15:40:52.452Z,100787.44
2022-12-22T15:46:06.548Z,100800.94
2022-12-22T15:48:35.953Z,100821.34
2022-12-22T15:51:04.116Z,100818.53
2022-12-22T15:53:32.356Z,100825.38
2022-12-22T15:56:18.976Z,100829.59
2022-12-22T15:58:45.861Z,100822.50
2022-12-22T16:01:12.878Z,100774.75
2022-12-22T16:03:39.569Z,100852.59
2022-12-22T16:06:07.027Z,100857.44
2022-12-22T16:08:37.155Z,100871.69
2022-12-22T16:11:08.091Z,100871.16
2022-12-22T16:13:37.363Z,100870.53
2022-12-22T16:16:04.461Z,100802.31
2022-12-22T16:18:30.985Z,100871.66
2022-12-22T16:21:04.890Z,100890.84
2022-12-22T16:23:31.572Z,100906.88
2022-12-22T16:26:01.660Z,100908.69
2022-12-22T16:28:29.400Z,100895.00
2022-12-22T16:30:56.417Z,100919.53
2022-12-22T16:33:26.423Z,100940.59
2022-12-22T16:35:53.067Z,100942.97
2022-12-22T16:38:20.277Z,100960.88
2022-12-22T16:40:53.341Z,100985.16
2022-12-22T16:43:50.600Z,101005.00
2022-12-22T16:46:19.999Z,101006.72
2022-12-22T16:48:50.924Z,101045.34
2022-12-22T16:51:30.330Z,101055.81
2022-12-22T16:53:57.043Z,101069.63
2022-12-22T16:56:25.036Z,101076.06
2022-12-22T16:58:51.782Z,101048.56
2022-12-22T17:01:39.458Z,101099.09
2022-12-22T17:04:30.496Z,101134.63
2022-12-22T17:06:59.375Z,101139.66
2022-12-22T17:09:40.653Z,101154.72
2022-12-22T17:12:07.221Z,101175.66
2022-12-22T17:14:40.696Z,101186.06
2022-12-22T17:17:15.130Z,101201.94
2022-12-22T17:19:41.638Z,101220.13
2022-12-22T17:22:19.962Z,101234.03
2022-12-22T17:24:46.507Z,101261.03
2022-12-22T17:27:14.080Z,101227.34
2022-12-22T17:29:40.961Z,101305.41
2022-12-22T17:32:13.494Z,101320.78
2022-12-22T17:34:40.305Z,101343.34
2022-12-22T17:37:27.290Z,101367.25
2022-12-22T17:39:59.906Z,101402.63
2022-12-22T17:42:26.664Z,101333.97
2022-12-22T17:44:53.278Z,101421.41
2022-12-22T17:47:25.159Z,101405.81
2022-12-22T17:49:57.267Z,101441.09
2022-12-22T17:52:24.516Z,101454.34
2022-12-22T17:54:53.021Z,101454.22
2022-12-22T17:57:30.777Z,101464.94
2022-12-22T17:59:57.358Z,101397.03
2022-12-22T18:02:24.314Z,101461.22
2022-12-22T18:04:52.012Z,101481.38
2022-12-22T18:07:21.976Z,101416.59
2022-12-22T18:09:50.300Z,101420.63
2022-12-22T18:12:22.629Z,101502.69
2022-12-22T18:14:49.745Z,101515.47
2022-12-22T18:17:34.901Z,101519.75
2022-12-22T18:20:02.218Z,101540.56
2022-12-22T18:22:29.842Z,101544.50
2022-12-22T18:24:57.135Z,101568.69
2022-12-22T18:27:24.063Z,101679.09
2022-12-22T18:29:50.604Z,101685.28
2022-12-22T18:32:23.814Z,101628.91
2022-12-22T18:34:54.344Z,101681.88
2022-12-22T18:37:21.014Z,101704.19
2022-12-22T18:39:47.692Z,101720.84
2022-12-22T18:42:22.192Z,101707.16
2022-12-22T18:44:50.286Z,101703.94
2022-12-22T18:47:16.961Z,101677.13
2022-12-22T18:49:44.209Z,101651.28
2022-12-22T18:52:20.634Z,101619.97
2022-12-22T18:54:48.251Z,101518.34
2022-12-22T18:57:18.222Z,101538.41
2022-12-22T18:59:45.416Z,101531.38
2022-12-22T19:02:26.709Z,101525.50
2022-12-22T19:04:54.216Z,101487.00
2022-12-22T19:07:23.793Z,101443.19
2022-12-22T19:09:51.565Z,101398.66
2022-12-22T19:12:22.509Z,101320.38
2022-12-22T19:14:52.094Z,101290.28
2022-12-22T19:17:27.253Z,101250.59
2022-12-22T19:19:53.901Z,101196.56
2022-12-22T19:22:20.587Z,101128.44
2022-12-22T19:24:47.266Z,101104.44
2022-12-22T19:27:27.847Z,101086.41
2022-12-22T19:30:03.420Z,101049.44
2022-12-22T19:32:35.768Z,101035.84
2022-12-22T19:35:02.458Z,101016.97
2022-12-22T19:37:29.046Z,100928.13
2022-12-22T19:39:55.655Z,100984.47
2022-12-22T19:42:23.586Z,100971.25
2022-12-22T19:44:50.069Z,100952.38
2022-12-22T19:47:22.697Z,100932.69
2022-12-22T19:49:49.302Z,100912.63
2022-12-22T19:52:16.002Z,100897.78
2022-12-22T19:54:42.657Z,100888.56
2022-12-22T19:57:18.256Z,100781.34
2022-12-22T19:59:48.637Z,100826.75
2022-12-22T20:02:24.666Z,100830.94
2022-12-22T20:04:52.488Z,100803.25
2022-12-22T20:07:21.426Z,100722.38
2022-12-22T20:09:48.501Z,100796.25
2022-12-22T20:12:29.389Z,100811.50
2022-12-22T20:14:56.387Z,100814.31
2022-12-22T20:17:23.157Z,100815.31
2022-12-22T20:19:49.940Z,100789.81
2022-12-22T20:22:20.995Z,100783.38
2022-12-22T20:24:49.870Z,100789.81
2022-12-22T20:27:22.201Z,100777.56
2022-12-22T20:29:49.536Z,100753.91
2022-12-22T20:32:19.638Z,100724.41
2022-12-22T20:34:48.914Z,100751.28
2022-12-22T20:37:18.003Z,100677.88
2022-12-22T20:39:45.697Z,100738.03
2022-12-22T20:42:23.395Z,100716.56
2022-12-22T20:45:02.986Z,100700.91
2022-12-22T20:47:30.570Z,100686.47
2022-12-22T20:49:57.108Z,100673.63
2022-12-22T20:52:23.627Z,100610.91
2022-12-22T20:54:50.315Z,100620.31
2022-12-22T20:57:17.185Z,100656.75
2022-12-22T20:59:43.757Z,100644.31
2022-12-22T21:02:23.172Z,100650.53
2022-12-22T21:04:50.275Z,100637.09
2022-12-22T21:07:16.884Z,100633.25
2022-12-22T21:09:43.501Z,100588.97
2022-12-22T21:12:10.207Z,100614.44
2022-12-22T21:14:37.352Z,100615.22
2022-12-22T21:17:04.514Z,100604.00
2022-12-22T21:19:31.097Z,100561.31
2022-12-22T21:21:57.669Z,100609.41
2022-12-22T21:24:24.278Z,100584.34
2022-12-22T21:26:53.365Z,100594.97
2022-12-22T21:29:25.159Z,100599.16
2022-12-22T21:31:51.911Z,100596.41
2022-12-22T21:34:18.669Z,100605.00
2022-12-22T21:36:48.464Z,100608.59
2022-12-22T21:39:31.502Z,100595.16
2022-12-22T21:41:58.082Z,100543.28
2022-12-22T21:44:24.695Z,100588.34
2022-12-22T21:46:51.758Z,100591.56
2022-12-22T21:49:20.684Z,100604.38
2022-12-22T21:51:48.253Z,100598.97
2022-12-22T21:54:15.591Z,100609.81
2022-12-22T21:56:42.063Z,100549.91
2022-12-22T21:59:08.641Z,100611.41
2022-12-22T22:01:36.385Z,100557.50
2022-12-22T22:04:03.110Z,100554.91
2022-12-22T22:06:29.844Z,100609.00
2022-12-22T22:08:56.457Z,100602.59
2022-12-22T22:11:25.452Z,100569.59
2022-12-22T22:13:52.792Z,100626.50
2022-12-22T22:16:20.313Z,100634.50
2022-12-22T22:18:47.861Z,100589.03
2022-12-22T22:21:15.992Z,100633.72
2022-12-22T22:23:43.434Z,100590.66
2022-12-22T22:26:10.419Z,100646.72
2022-12-22T22:28:37.055Z,100648.75
2022-12-22T22:31:10.027Z,100652.59
2022-12-22T22:33:37.163Z,100651.97
2022-12-22T22:36:08.057Z,100671.00
2022-12-22T22:38:34.752Z,100667.00
2022-12-22T22:41:01.580Z,100666.81
2022-12-22T22:43:28.302Z,100660.00
2022-12-22T22:45:54.861Z,100668.63
2022-12-22T22:48:22.615Z,100669.25
2022-12-22T22:50:50.074Z,100632.97
2022-12-22T22:53:16.793Z,100603.13
2022-12-22T22:55:43.594Z,100686.50
2022-12-22T22:58:10.339Z,100696.34
2022-12-22T23:00:37.808Z,100700.34
2022-12-22T23:03:04.579Z,100697.13
2022-12-22T23:05:31.639Z,100700.13
2022-12-22T23:07:58.205Z,100708.75
2022-12-22T23:10:25.127Z,100678.66
2022-12-22T23:12:51.680Z,100699.94
2022-12-22T23:15:18.413Z,100685.91
2022-12-22T23:17:45.136Z,100703.34
2022-12-22T23:20:11.727Z,100656.44
2022-12-22T23:22:38.630Z,100717.59
2022-12-22T23:25:05.648Z,100712.38
2022-12-22T23:27:32.340Z,100689.91
2022-12-22T23:29:58.858Z,100714.19
2022-12-22T23:32:25.392Z,100648.00
2022-12-22T23:34:52.180Z,100693.50
2022-12-22T23:37:19.736Z,100715.78
2022-12-22T23:39:46.536Z,100658.63
2022-12-22T23:42:13.135Z,100699.53
2022-12-22T23:44:40.014Z,100730.25
2022-12-22T23:47:06.641Z,100725.41
2022-12-22T23:49:33.510Z,100719.78
2022-12-22T23:52:00.009Z,100735.63
2022-12-22T23:54:26.655Z,100722.59
2022-12-22T23:56:53.313Z,100747.06
2022-12-22T23:59:19.855Z,100746.09
